Time;durP1;ratioP1;P1;durP2;ratioP2;P2;SDS_P1;SDS_P2;PMS_P1;PMS_P2;Temp;Humidity;BMP_temperature;BMP_pressure;BME280_temperature;BME280_humidity;BME280_pressure;Samples;Min_cycle;Max_cycle;Signal;HPM_P1;HPM_P2
2022/07/04 00:00:49;;;;;;;5.20;4.23;;;15.90;99.90;;;;;;5039292;28;20279;-81
2022/07/04 00:03:16;;;;;;;7.60;3.87;;;15.90;99.90;;;;;;5041723;28;20213;-81
2022/07/04 00:05:43;;;;;;;7.33;4.50;;;15.90;99.90;;;;;;5047154;28;20237;-81
2022/07/04 00:08:10;;;;;;;6.90;4.17;;;15.80;99.90;;;;;;5037241;28;20226;-81
2022/07/04 00:10:37;;;;;;;8.90;4.43;;;15.80;99.90;;;;;;5047564;28;20201;-80
2022/07/04 00:13:03;;;;;;;6.13;3.83;;;15.80;99.90;;;;;;5049339;28;20286;-80
2022/07/04 00:15:30;;;;;;;9.03;4.10;;;15.70;99.90;;;;;;5048934;28;20268;-80
2022/07/04 00:17:57;;;;;;;5.40;4.10;;;15.70;99.90;;;;;;5038334;28;20257;-81
2022/07/04 00:20:24;;;;;;;8.10;4.40;;;15.70;99.90;;;;;;5052897;28;20724;-81
2022/07/04 00:22:51;;;;;;;7.93;4.17;;;15.60;99.90;;;;;;5053879;28;20232;-81
2022/07/04 00:25:17;;;;;;;8.43;4.40;;;15.60;99.90;;;;;;5050727;28;20202;-81
2022/07/04 00:27:44;;;;;;;8.27;4.50;;;15.50;99.90;;;;;;5050268;28;20206;-79
2022/07/04 00:30:11;;;;;;;8.03;3.93;;;15.50;99.90;;;;;;5042547;28;20213;-80
2022/07/04 00:32:38;;;;;;;6.70;4.30;;;15.50;99.90;;;;;;5038681;28;20258;-79
2022/07/04 00:35:07;;;;;;;5.63;4.77;;;15.50;99.90;;;;;;5045324;28;20664;-80
2022/07/04 00:37:33;;;;;;;9.77;4.33;;;15.50;99.90;;;;;;5034040;28;20210;-80
2022/07/04 00:40:00;;;;;;;7.47;4.47;;;15.50;99.90;;;;;;5044789;28;20217;-82
2022/07/04 00:42:27;;;;;;;8.30;4.37;;;15.40;99.90;;;;;;5034520;28;20237;-80
2022/07/04 00:44:54;;;;;;;8.63;5.13;;;15.40;99.90;;;;;;5045279;28;20201;-80
2022/07/04 00:47:21;;;;;;;5.73;4.93;;;15.40;99.90;;;;;;5045999;28;20243;-79
2022/07/04 00:49:47;;;;;;;5.87;4.87;;;15.30;99.90;;;;;;5035691;28;20206;-79
2022/07/04 00:52:14;;;;;;;8.53;5.73;;;15.30;99.90;;;;;;5037132;28;20255;-80
2022/07/04 00:54:41;;;;;;;8.83;5.77;;;15.20;99.90;;;;;;5037083;28;20247;-81
2022/07/04 00:57:08;;;;;;;10.60;6.20;;;15.20;99.90;;;;;;5038271;28;20209;-82
2022/07/04 00:59:35;;;;;;;9.00;5.70;;;15.20;99.90;;;;;;5043165;28;20209;-81
2022/07/04 01:02:02;;;;;;;9.90;6.37;;;15.20;99.90;;;;;;5039932;28;20234;-82
2022/07/04 01:04:29;;;;;;;12.07;6.50;;;15.20;99.90;;;;;;5036840;28;20229;-82
2022/07/04 01:06:56;;;;;;;8.83;5.70;;;15.20;99.90;;;;;;5043981;28;20288;-81
2022/07/04 01:09:23;;;;;;;10.83;6.13;;;15.10;99.90;;;;;;5034486;28;20321;-81
2022/07/04 01:11:50;;;;;;;10.63;6.40;;;15.10;99.90;;;;;;5041805;28;20268;-81
2022/07/04 01:14:17;;;;;;;12.17;6.37;;;15.10;99.90;;;;;;5045607;28;20267;-81
2022/07/04 01:16:44;;;;;;;9.77;6.50;;;15.10;99.90;;;;;;5036631;28;20233;-80
2022/07/04 01:19:11;;;;;;;10.30;6.20;;;15.10;99.90;;;;;;5039244;28;20206;-81
2022/07/04 01:21:39;;;;;;;14.23;6.50;;;15.00;99.90;;;;;;5043302;28;20228;-81
2022/07/04 01:24:06;;;;;;;12.00;6.13;;;15.00;99.90;;;;;;5041504;28;20267;-81
2022/07/04 01:26:32;;;;;;;9.47;5.90;;;15.00;99.90;;;;;;5041718;28;20206;-81
2022/07/04 01:28:59;;;;;;;13.30;6.47;;;15.00;99.90;;;;;;5037358;28;20260;-80
2022/07/04 01:31:26;;;;;;;9.63;5.90;;;15.00;99.90;;;;;;5036040;28;20622;-81
2022/07/04 01:33:53;;;;;;;11.27;6.57;;;15.00;99.90;;;;;;5036906;28;20221;-81
2022/07/04 01:36:20;;;;;;;13.73;7.13;;;14.90;99.90;;;;;;5039556;28;20186;-81
2022/07/04 01:38:47;;;;;;;8.00;5.47;;;14.90;99.90;;;;;;5040510;28;20221;-80
2022/07/04 01:41:14;;;;;;;12.17;6.60;;;14.90;99.90;;;;;;5044544;28;20229;-80
2022/07/04 01:43:40;;;;;;;10.93;6.40;;;14.90;99.90;;;;;;5036805;28;20205;-80
2022/07/04 01:46:07;;;;;;;11.93;6.53;;;14.90;99.90;;;;;;5034205;28;20611;-81
2022/07/04 01:48:34;;;;;;;13.03;6.60;;;14.80;99.90;;;;;;5040883;28;20232;-80
2022/07/04 01:51:01;;;;;;;13.00;7.43;;;14.80;99.90;;;;;;5045102;28;20272;-81
2022/07/04 01:53:27;;;;;;;13.60;6.87;;;14.80;99.90;;;;;;5043350;28;20264;-80
2022/07/04 01:55:54;;;;;;;13.97;7.30;;;14.80;99.90;;;;;;5042093;28;20246;-81
2022/07/04 01:58:21;;;;;;;10.00;7.10;;;14.80;99.90;;;;;;5046668;28;20198;-81
2022/07/04 02:03:34;;;;;;;8.93;7.27;;;14.70;99.90;;;;;;5033905;28;20559;-81
2022/07/04 02:06:00;;;;;;;11.60;7.37;;;14.70;99.90;;;;;;5043511;28;20572;-79
2022/07/04 02:09:14;;;;;;;9.53;6.10;;;14.70;99.90;;;;;;5043905;28;20244;-80
2022/07/04 02:11:14;;;;;;;11.17;6.50;;;14.70;99.90;;;;;;5043674;28;20298;-81
2022/07/04 02:13:41;;;;;;;9.27;6.37;;;14.70;99.90;;;;;;5043841;28;20236;-81
2022/07/04 02:16:07;;;;;;;10.40;6.77;;;14.70;99.90;;;;;;5038511;28;20206;-81
2022/07/04 02:18:34;;;;;;;7.57;6.20;;;14.70;99.90;;;;;;5040419;28;20323;-82
2022/07/04 02:21:01;;;;;;;9.30;6.30;;;14.70;99.90;;;;;;5051863;28;20715;-81
2022/07/04 02:23:28;;;;;;;10.80;7.00;;;14.70;99.90;;;;;;5038601;28;20774;-81
2022/07/04 02:25:55;;;;;;;10.47;6.60;;;14.60;99.90;;;;;;5031120;28;20647;-82
2022/07/04 02:28:22;;;;;;;11.07;6.47;;;14.60;99.90;;;;;;5039154;28;20213;-80
2022/07/04 02:30:48;;;;;;;9.53;6.43;;;14.60;99.90;;;;;;5036412;28;20209;-81
2022/07/04 02:33:15;;;;;;;10.10;6.60;;;14.60;99.90;;;;;;5041445;28;20832;-82
2022/07/04 02:35:42;;;;;;;8.37;4.93;;;14.60;99.90;;;;;;5045975;28;20209;-81
2022/07/04 02:38:09;;;;;;;11.77;7.40;;;14.50;99.90;;;;;;5043194;28;20228;-82
2022/07/04 02:40:35;;;;;;;8.40;5.60;;;14.50;99.90;;;;;;5039500;28;20206;-81
2022/07/04 02:43:02;;;;;;;10.67;6.10;;;14.50;99.90;;;;;;5044487;28;20298;-82
2022/07/04 02:45:29;;;;;;;11.63;6.93;;;14.50;99.90;;;;;;5046651;28;20627;-80
2022/07/04 02:47:56;;;;;;;9.13;5.97;;;14.50;99.90;;;;;;5037229;28;20270;-81
2022/07/04 02:50:22;;;;;;;12.33;6.07;;;14.40;99.90;;;;;;5039495;28;20206;-80
2022/07/04 02:52:49;;;;;;;11.33;6.77;;;14.40;99.90;;;;;;5038323;28;20272;-80
2022/07/04 02:55:16;;;;;;;8.90;6.53;;;14.40;99.90;;;;;;5041459;28;20677;-80
2022/07/04 02:57:43;;;;;;;10.27;6.50;;;14.40;99.90;;;;;;5044479;28;20221;-80
2022/07/04 03:00:10;;;;;;;8.23;5.27;;;14.30;99.90;;;;;;5049257;28;20270;-81
2022/07/04 03:02:37;;;;;;;11.77;6.47;;;14.30;99.90;;;;;;5048486;28;20282;-82
2022/07/04 03:05:04;;;;;;;10.17;6.53;;;14.30;99.90;;;;;;5038938;28;20197;-81
2022/07/04 03:07:31;;;;;;;9.90;6.33;;;14.30;99.90;;;;;;5034835;28;20233;-81
2022/07/04 03:09:58;;;;;;;9.50;6.03;;;14.20;99.90;;;;;;5033676;28;20326;-80
2022/07/04 03:12:24;;;;;;;10.43;6.27;;;14.20;99.90;;;;;;5044384;28;20298;-81
2022/07/04 03:14:53;;;;;;;9.70;6.00;;;14.20;99.90;;;;;;5045050;28;20355;-81
2022/07/04 03:17:20;;;;;;;9.47;6.27;;;14.10;99.90;;;;;;5046333;28;20226;-81
2022/07/04 03:19:47;;;;;;;12.07;6.47;;;14.10;99.90;;;;;;5043451;28;20315;-79
2022/07/04 03:22:14;;;;;;;10.93;6.20;;;14.10;99.90;;;;;;5043565;28;20274;-80
2022/07/04 03:24:41;;;;;;;7.53;6.03;;;14.10;99.90;;;;;;5041672;28;20249;-82
2022/07/04 03:27:09;;;;;;;8.53;5.93;;;14.10;99.90;;;;;;5047096;28;20228;-82
2022/07/04 03:29:35;;;;;;;9.83;6.27;;;14.10;99.90;;;;;;5042405;28;20208;-80
2022/07/04 03:32:02;;;;;;;10.93;6.40;;;14.10;99.90;;;;;;5036270;28;20233;-81
2022/07/04 03:34:29;;;;;;;11.57;6.40;;;14.10;99.90;;;;;;5041304;28;20287;-81
2022/07/04 03:36:56;;;;;;;8.43;6.47;;;14.10;99.90;;;;;;5045094;28;20291;-81
2022/07/04 03:39:23;;;;;;;9.23;5.87;;;14.10;99.90;;;;;;5043163;28;20236;-80
2022/07/04 03:41:50;;;;;;;9.67;5.77;;;14.10;99.90;;;;;;5046404;28;20229;-80
2022/07/04 03:44:16;;;;;;;14.97;7.40;;;14.10;99.90;;;;;;5043644;28;20232;-82
2022/07/04 03:46:43;;;;;;;9.57;7.13;;;14.10;99.90;;;;;;5046237;28;20217;-80
2022/07/04 03:49:10;;;;;;;14.07;6.60;;;14.10;99.90;;;;;;5042838;28;20315;-81
2022/07/04 03:51:37;;;;;;;11.70;6.63;;;14.10;99.90;;;;;;5045884;28;20242;-79
2022/07/04 03:54:04;;;;;;;12.40;6.03;;;14.10;99.90;;;;;;5045745;28;20335;-81
2022/07/04 03:56:30;;;;;;;9.67;6.30;;;14.10;99.90;;;;;;5032797;28;20654;-80
2022/07/04 03:58:57;;;;;;;11.70;6.27;;;14.10;99.90;;;;;;5051722;28;20200;-81
2022/07/04 04:01:24;;;;;;;10.97;6.30;;;14.10;99.90;;;;;;5040433;28;20201;-80
2022/07/04 04:06:36;;;;;;;10.83;5.30;;;14.10;99.90;;;;;;5049463;28;20236;-81
2022/07/04 04:09:03;;;;;;;11.17;6.00;;;14.20;99.90;;;;;;5051601;28;20221;-80
2022/07/04 04:11:35;;;;;;;8.10;5.67;;;14.20;99.90;;;;;;5054146;28;20227;-82
2022/07/04 04:14:02;;;;;;;15.27;6.87;;;14.20;99.90;;;;;;5035805;28;20202;-80
2022/07/04 04:16:29;;;;;;;9.93;6.40;;;14.30;99.90;;;;;;5046836;28;20224;-80
2022/07/04 04:18:56;;;;;;;8.70;6.00;;;14.40;99.90;;;;;;5052288;28;20204;-80
2022/07/04 04:21:22;;;;;;;8.87;6.43;;;14.30;99.90;;;;;;5052491;28;20235;-82
2022/07/04 04:23:49;;;;;;;9.47;5.90;;;14.40;99.90;;;;;;5039555;28;20621;-81
2022/07/04 04:26:16;;;;;;;13.83;6.50;;;14.40;99.90;;;;;;5047847;28;20236;-81
2022/07/04 04:28:43;;;;;;;13.90;7.17;;;14.50;99.90;;;;;;5039849;28;20934;-80
2022/07/04 04:31:10;;;;;;;13.70;7.67;;;14.50;99.90;;;;;;5043034;28;20237;-80
2022/07/04 04:33:37;;;;;;;14.47;7.23;;;14.50;99.90;;;;;;5036282;28;20728;-79
2022/07/04 04:36:04;;;;;;;9.33;6.10;;;14.60;99.90;;;;;;5037506;28;20715;-82
2022/07/04 04:38:31;;;;;;;13.60;6.53;;;14.70;99.90;;;;;;5037452;28;20260;-80
2022/07/04 04:41:05;;;;;;;8.90;6.00;;;14.70;99.90;;;;;;5041393;28;20317;-79
2022/07/04 04:43:31;;;;;;;12.83;5.43;;;14.80;99.90;;;;;;5046323;28;20713;-82
2022/07/04 04:45:58;;;;;;;7.93;4.83;;;14.90;99.90;;;;;;5047151;28;20197;-80
2022/07/04 04:48:25;;;;;;;7.60;5.10;;;15.00;99.90;;;;;;5055042;28;20292;-81
2022/07/04 04:50:52;;;;;;;5.40;4.83;;;15.10;99.90;;;;;;5042494;28;20680;-80
2022/07/04 04:53:22;;;;;;;8.97;4.90;;;15.20;99.90;;;;;;5036204;28;20214;-82
2022/07/04 04:55:49;;;;;;;8.33;4.87;;;15.20;99.90;;;;;;5047584;28;20205;-82
2022/07/04 04:58:15;;;;;;;8.47;5.80;;;15.30;99.90;;;;;;5043914;28;20716;-81
2022/07/04 05:00:42;;;;;;;11.23;5.20;;;15.40;99.90;;;;;;5043280;28;20556;-81
2022/07/04 05:03:29;;;;;;;11.87;5.33;;;15.40;99.90;;;;;;5040217;28;20224;-80
2022/07/04 05:05:56;;;;;;;9.23;5.40;;;15.40;99.90;;;;;;5055774;28;20212;-82
2022/07/04 05:08:26;;;;;;;8.33;6.20;;;15.40;99.90;;;;;;5051301;28;20331;-80
2022/07/04 05:10:53;;;;;;;11.93;6.23;;;15.50;99.90;;;;;;5046954;28;20514;-80
2022/07/04 05:13:20;;;;;;;10.33;5.57;;;15.60;99.90;;;;;;5037492;28;20207;-82
2022/07/04 05:15:47;;;;;;;9.07;6.03;;;15.60;99.90;;;;;;5043348;28;20199;-80
2022/07/04 05:18:15;;;;;;;9.10;5.87;;;15.60;99.90;;;;;;5046937;28;20272;-79
2022/07/04 05:20:42;;;;;;;11.97;4.90;;;15.70;99.90;;;;;;5042393;28;20239;-81
2022/07/04 05:23:09;;;;;;;12.10;5.70;;;15.70;99.90;;;;;;5043020;28;20358;-80
2022/07/04 05:25:36;;;;;;;11.57;5.70;;;15.80;99.90;;;;;;5036998;28;20206;-80
2022/07/04 05:28:03;;;;;;;9.83;5.60;;;15.90;99.90;;;;;;5037416;28;20268;-81
2022/07/04 05:30:29;;;;;;;9.07;4.90;;;16.00;99.90;;;;;;5040784;28;20198;-82
2022/07/04 05:32:58;;;;;;;8.17;4.40;;;16.60;99.90;;;;;;5049065;28;20260;-81
2022/07/04 05:35:25;;;;;;;7.70;4.45;;;17.50;99.90;;;;;;5045908;28;20201;-80
2022/07/04 05:37:53;;;;;;;6.15;3.50;;;18.60;99.90;;;;;;5042235;28;20224;-81
2022/07/04 05:40:21;;;;;;;9.35;3.72;;;19.70;99.90;;;;;;5047655;28;20243;-80
2022/07/04 05:42:48;;;;;;;10.07;3.17;;;20.80;99.90;;;;;;5032915;28;20291;-81
2022/07/04 05:45:15;;;;;;;11.65;3.75;;;21.70;99.90;;;;;;5047669;28;20201;-83
2022/07/04 05:47:43;;;;;;;6.38;2.90;;;22.60;99.90;;;;;;5047882;28;20657;-80
2022/07/04 05:50:11;;;;;;;7.28;2.75;;;23.30;99.90;;;;;;5047412;28;20209;-79
2022/07/04 05:52:37;;;;;;;10.93;2.88;;;24.20;99.90;;;;;;5040417;28;20282;-79
2022/07/04 05:55:06;;;;;;;5.57;2.40;;;24.70;99.90;;;;;;5037667;28;20253;-79
2022/07/04 05:57:33;;;;;;;4.38;2.30;;;25.30;99.90;;;;;;5036857;28;20230;-80
2022/07/04 06:00:02;;;;;;;5.63;1.88;;;25.90;99.90;;;;;;5040890;28;20264;-80
2022/07/04 06:02:29;;;;;;;6.75;1.88;;;26.30;99.90;;;;;;5038361;28;20608;-80
2022/07/04 06:04:55;;;;;;;7.03;2.15;;;26.90;99.90;;;;;;5030587;28;20202;-81
2022/07/04 06:07:22;;;;;;;5.38;1.60;;;27.20;99.90;;;;;;5035459;28;20299;-81
2022/07/04 06:09:49;;;;;;;5.43;1.60;;;27.00;99.90;;;;;;5037272;28;20217;-80
2022/07/04 06:12:16;;;;;;;4.43;1.70;;;26.90;99.90;;;;;;5040098;28;20209;-80
2022/07/04 06:14:43;;;;;;;4.55;1.77;;;27.10;99.90;;;;;;5040952;28;20244;-84
2022/07/04 06:17:10;;;;;;;5.60;1.65;;;27.50;99.90;;;;;;5068567;28;20734;-85
2022/07/04 06:19:37;;;;;;;7.38;2.13;;;27.80;99.90;;;;;;5061486;28;20197;-81
2022/07/04 06:22:04;;;;;;;7.45;1.60;;;28.10;99.90;;;;;;5053722;28;20661;-80
2022/07/04 06:24:31;;;;;;;6.38;1.83;;;28.30;99.90;;;;;;5054202;28;20232;-80
2022/07/04 06:26:58;;;;;;;3.67;1.20;;;28.70;99.90;;;;;;5039054;28;20233;-82
2022/07/04 06:29:24;;;;;;;4.80;2.10;;;29.30;99.90;;;;;;5035121;28;20271;-80
2022/07/04 06:31:51;;;;;;;4.55;1.60;;;29.00;99.90;;;;;;5036668;28;20205;-80
2022/07/04 06:37:03;;;;;;;6.78;2.05;;;28.60;99.90;;;;;;5047022;28;20619;-80
2022/07/04 06:39:30;;;;;;;5.75;2.20;;;27.90;99.90;;;;;;5042711;28;20286;-81
2022/07/04 06:41:57;;;;;;;8.23;2.00;;;27.30;99.90;;;;;;5042967;28;20262;-80
2022/07/04 06:44:24;;;;;;;6.28;2.17;;;;;;;;;;5045087;28;20259;-84
2022/07/04 06:46:51;;;;;;;7.57;2.08;;;25.90;99.90;;;;;;5046229;28;20244;-81
2022/07/04 06:49:18;;;;;;;6.00;2.00;;;25.50;99.90;;;;;;5045124;28;20209;-80
2022/07/04 06:51:44;;;;;;;4.75;1.90;;;25.10;99.90;;;;;;5042315;28;20198;-80
2022/07/04 06:54:11;;;;;;;5.88;2.50;;;24.70;99.90;;;;;;5046646;28;20318;-81
2022/07/04 06:56:38;;;;;;;8.75;2.60;;;24.40;99.90;;;;;;5042358;28;20623;-81
2022/07/04 06:59:05;;;;;;;4.88;2.25;;;24.50;99.90;;;;;;5033090;28;20308;-82
2022/07/04 07:01:32;;;;;;;5.95;2.00;;;25.00;99.90;;;;;;5040890;28;20719;-80
2022/07/04 07:03:58;;;;;;;6.10;2.67;;;25.60;99.90;;;;;;5049180;28;20310;-83
2022/07/04 07:06:25;;;;;;;6.82;2.67;;;25.90;99.90;;;;;;5043060;28;20201;-82
2022/07/04 07:08:52;;;;;;;8.10;2.65;;;26.10;99.90;;;;;;5049909;28;20221;-81
2022/07/04 07:11:19;;;;;;;6.63;2.50;;;26.20;99.90;;;;;;5051834;28;20688;-81
2022/07/04 07:13:49;;;;;;;5.15;2.67;;;26.60;99.90;;;;;;5049898;28;20571;-80
2022/07/04 07:16:17;;;;;;;6.70;2.60;;;26.90;99.90;;;;;;5050950;28;20225;-80
2022/07/04 07:18:44;;;;;;;6.80;2.88;;;27.40;99.90;;;;;;5052802;28;20517;-81
2022/07/04 07:21:11;;;;;;;9.68;3.10;;;28.00;99.90;;;;;;5047809;28;20201;-80
2022/07/04 07:23:40;;;;;;;7.07;2.75;;;28.20;99.90;;;;;;5049288;28;20694;-80
2022/07/04 07:26:07;;;;;;;7.95;2.75;;;28.30;99.90;;;;;;5036848;28;20206;-81
2022/07/04 07:28:34;;;;;;;8.43;3.17;;;28.40;99.90;;;;;;5038203;28;20244;-79
2022/07/04 07:31:01;;;;;;;5.40;2.58;;;28.30;99.90;;;;;;5051475;28;20245;-79
2022/07/04 07:33:28;;;;;;;8.38;2.67;;;28.10;99.90;;;;;;5047115;28;20202;-80
2022/07/04 07:35:55;;;;;;;6.72;2.70;;;27.80;99.90;;;;;;5054295;28;20209;-79
2022/07/04 07:38:22;;;;;;;10.27;3.05;;;27.60;99.90;;;;;;5052333;28;20299;-81
2022/07/04 07:40:48;;;;;;;7.30;2.80;;;27.30;99.90;;;;;;5048837;28;20201;-80
2022/07/04 07:43:15;;;;;;;8.85;3.45;;;27.20;99.90;;;;;;5045913;28;20225;-79
2022/07/04 07:45:42;;;;;;;8.63;2.78;;;27.10;99.90;;;;;;5048697;28;20206;-80
2022/07/04 07:48:09;;;;;;;8.07;2.53;;;27.30;99.90;;;;;;5048508;28;21104;-79
2022/07/04 07:50:36;;;;;;;6.28;2.83;;;27.60;99.90;;;;;;5046811;28;20236;-81
2022/07/04 07:53:03;;;;;;;8.80;2.80;;;27.60;99.90;;;;;;5053465;28;20693;-82
2022/07/04 07:55:29;;;;;;;4.68;2.70;;;27.20;99.90;;;;;;5039394;28;20213;-77
2022/07/04 07:57:58;;;;;;;5.13;2.53;;;26.60;99.90;;;;;;5046461;28;20273;-80
2022/07/04 08:00:25;;;;;;;7.45;2.80;;;26.70;99.90;;;;;;5049039;28;20280;-82
2022/07/04 08:05:58;;;;;;;7.88;2.65;;;26.90;99.90;;;;;;5041045;28;20210;-79
2022/07/04 08:08:24;;;;;;;6.90;2.55;;;26.80;99.90;;;;;;5052724;28;20221;-81
2022/07/04 08:10:51;;;;;;;6.60;2.60;;;26.90;99.90;;;;;;5042710;28;20735;-82
2022/07/04 08:13:18;;;;;;;6.97;3.38;;;27.20;99.90;;;;;;5043553;28;20201;-81
2022/07/04 08:15:45;;;;;;;6.03;3.00;;;27.40;99.90;;;;;;5048089;28;20239;-78
2022/07/04 08:18:12;;;;;;;4.55;2.92;;;27.30;99.90;;;;;;5043729;28;20583;-80
2022/07/04 08:20:39;;;;;;;6.00;3.03;;;26.70;99.90;;;;;;5047499;28;20262;-81
2022/07/04 08:23:26;;;;;;;7.43;2.85;;;26.20;99.90;;;;;;5043490;28;20239;-80
2022/07/04 08:25:53;;;;;;;5.60;2.53;;;26.10;99.90;;;;;;5043862;28;20201;-81
2022/07/04 08:28:20;;;;;;;5.03;2.42;;;26.40;99.90;;;;;;5043863;28;20633;-81
2022/07/04 08:30:47;;;;;;;7.75;2.40;;;26.70;99.90;;;;;;5052088;28;20252;-81
2022/07/04 08:33:13;;;;;;;3.63;2.28;;;27.10;99.90;;;;;;5045059;28;20202;-81
2022/07/04 08:35:40;;;;;;;6.88;2.60;;;27.60;99.90;;;;;;5047872;28;20193;-80
2022/07/04 08:38:07;;;;;;;7.07;2.60;;;28.00;99.90;;;;;;5047372;28;20719;-82
2022/07/04 08:40:34;;;;;;;7.85;3.13;;;28.50;99.90;;;;;;5044614;28;20201;-85
2022/07/04 08:43:04;;;;;;;4.93;2.42;;;28.50;99.50;;;;;;5039875;28;20333;-80
2022/07/04 08:45:32;;;;;;;6.15;2.35;;;28.60;98.80;;;;;;5048575;28;20206;-80
2022/07/04 08:48:06;;;;;;;6.88;2.90;;;28.70;99.00;;;;;;5044168;28;20685;-80
2022/07/04 08:50:34;;;;;;;6.13;2.30;;;29.10;97.70;;;;;;5040034;28;20208;-78
2022/07/04 08:53:06;;;;;;;5.70;2.55;;;28.90;97.00;;;;;;5042586;28;20665;-80
2022/07/04 08:58:30;;;;;;;4.13;2.00;;;28.80;97.20;;;;;;5037591;28;20202;-80
2022/07/04 09:01:07;;;;;;;3.63;1.70;;;28.90;97.00;;;;;;5040354;28;20193;-80
2022/07/04 09:03:34;;;;;;;4.25;1.92;;;29.00;96.10;;;;;;5034321;28;20228;-80
2022/07/04 09:06:02;;;;;;;4.93;2.00;;;28.80;95.70;;;;;;5040473;28;20288;-80
2022/07/04 09:08:30;;;;;;;5.28;1.75;;;28.00;95.60;;;;;;5042828;28;20624;-80
2022/07/04 09:10:57;;;;;;;5.25;1.83;;;27.30;95.60;;;;;;5038278;28;20193;-80
2022/07/04 09:13:24;;;;;;;2.72;1.58;;;26.90;96.80;;;;;;5034349;28;20205;-79
2022/07/04 09:15:52;;;;;;;6.82;2.20;;;26.80;96.40;;;;;;5039289;28;20510;-78
2022/07/04 09:18:34;;;;;;;4.88;2.15;;;27.10;97.00;;;;;;5049453;28;20211;-79
2022/07/04 09:21:07;;;;;;;4.82;1.88;;;27.50;96.50;;;;;;5049253;28;20216;-78
2022/07/04 09:23:41;;;;;;;5.53;1.65;;;27.40;95.30;;;;;;5047292;28;20228;-79
2022/07/04 09:26:22;;;;;;;5.88;1.90;;;27.00;94.80;;;;;;5046355;28;20262;-79
2022/07/04 09:28:53;;;;;;;4.28;1.80;;;26.40;95.20;;;;;;5042139;28;20205;-79
2022/07/04 09:31:31;;;;;;;3.33;1.58;;;26.00;95.30;;;;;;5044905;28;20232;-80
2022/07/04 09:34:00;;;;;;;4.25;1.65;;;25.60;95.70;;;;;;5043886;28;20343;-79
2022/07/04 09:36:29;;;;;;;5.05;2.00;;;25.40;96.20;;;;;;5047851;28;20287;-80
2022/07/04 09:39:14;;;;;;;4.70;1.80;;;25.20;97.00;;;;;;5042768;28;20247;-80
2022/07/04 09:41:53;;;;;;;4.70;2.08;;;25.20;97.40;;;;;;5069093;28;20201;-80
2022/07/04 09:44:20;;;;;;;3.83;1.75;;;25.20;97.50;;;;;;5037991;28;20232;-79
2022/07/04 09:46:47;;;;;;;4.15;1.60;;;25.40;97.40;;;;;;5042100;28;20197;-80
2022/07/04 09:49:14;;;;;;;3.83;1.70;;;25.80;97.60;;;;;;5050051;28;20262;-79
2022/07/04 09:51:47;;;;;;;3.72;1.88;;;26.20;97.60;;;;;;5042104;28;20201;-80
2022/07/04 09:54:27;;;;;;;6.72;2.50;;;26.30;97.00;;;;;;5046567;28;20221;-79
2022/07/04 09:56:57;;;;;;;7.90;2.60;;;26.30;97.00;;;;;;5034992;28;20210;-75
2022/07/04 09:59:26;;;;;;;5.53;2.80;;;26.00;97.40;;;;;;5045121;28;20581;-79
2022/07/04 10:02:09;;;;;;;4.13;2.05;;;25.60;97.60;;;;;;5043871;28;20201;-77
2022/07/04 10:04:51;;;;;;;6.43;2.55;;;25.40;98.30;;;;;;5047549;28;20232;-80
2022/07/04 10:07:31;;;;;;;7.15;3.15;;;25.00;98.40;;;;;;5045069;28;20220;-79
2022/07/04 10:09:58;;;;;;;4.07;2.33;;;24.70;99.90;;;;;;5037188;28;20751;-80
2022/07/04 10:12:27;;;;;;;4.88;2.53;;;24.30;99.90;;;;;;5041378;28;20207;-77
2022/07/04 10:14:55;;;;;;;6.40;2.63;;;24.40;99.90;;;;;;5042244;28;20811;-79
2022/07/04 10:17:22;;;;;;;5.70;2.80;;;24.40;99.90;;;;;;5044139;28;20234;-82
2022/07/04 10:19:52;;;;;;;7.15;3.00;;;24.50;99.90;;;;;;5039484;28;20214;-79
2022/07/04 10:22:21;;;;;;;6.32;2.88;;;24.50;99.90;;;;;;5035381;28;20285;-82
2022/07/04 10:24:48;;;;;;;3.72;2.50;;;24.50;99.90;;;;;;5048875;28;20224;-81
2022/07/04 10:27:15;;;;;;;3.88;2.17;;;24.70;99.90;;;;;;5042224;28;20278;-81
2022/07/04 10:29:42;;;;;;;4.32;2.40;;;25.10;99.90;;;;;;5041691;28;20232;-81
2022/07/04 10:32:09;;;;;;;5.03;2.20;;;25.40;99.90;;;;;;5047839;28;20209;-85
2022/07/04 10:34:41;;;;;;;5.05;1.90;;;25.60;99.40;;;;;;5055286;28;20260;-81
2022/07/04 10:37:07;;;;;;;3.70;1.50;;;25.50;98.50;;;;;;5056289;28;20673;-81
2022/07/04 10:39:34;;;;;;;2.35;1.35;;;25.70;97.50;;;;;;5046853;28;20216;-81
2022/07/04 10:42:02;;;;;;;2.63;1.08;;;25.90;96.20;;;;;;5048087;28;20295;-81
2022/07/04 10:44:37;;;;;;;1.92;1.13;;;25.90;95.60;;;;;;5039900;28;20257;-80
2022/07/04 10:47:05;;;;;;;1.92;1.25;;;26.10;95.70;;;;;;5048750;28;20339;-84
2022/07/04 10:49:34;;;;;;;3.13;1.50;;;26.30;95.40;;;;;;5047346;28;20200;-84
2022/07/04 10:52:12;;;;;;;1.60;1.00;;;26.30;95.00;;;;;;5048002;28;20270;-82
2022/07/04 10:54:41;;;;;;;3.00;1.42;;;26.30;95.00;;;;;;5051158;28;20208;-83
2022/07/04 10:57:14;;;;;;;2.88;1.42;;;26.30;94.90;;;;;;5052096;28;20736;-82
2022/07/04 10:59:43;;;;;;;3.53;1.52;;;26.20;94.40;;;;;;5051759;28;20205;-82
2022/07/04 11:02:10;;;;;;;2.60;1.58;;;25.90;94.70;;;;;;5051067;28;20669;-83
2022/07/04 11:05:02;;;;;;;2.70;1.73;;;25.70;95.00;;;;;;5042571;28;20229;-79
2022/07/04 11:07:29;;;;;;;5.80;1.45;;;25.20;95.10;;;;;;5059575;28;20188;-79
2022/07/04 11:10:16;;;;;;;2.90;1.48;;;25.00;95.40;;;;;;5041541;28;20774;-79
2022/07/04 11:12:57;;;;;;;4.32;1.20;;;24.70;95.50;;;;;;5036926;28;20624;-77
2022/07/04 11:15:24;;;;;;;1.92;1.30;;;24.70;96.50;;;;;;5038627;28;20209;-79
2022/07/04 11:17:52;;;;;;;2.67;1.40;;;24.90;96.50;;;;;;5051978;28;20294;-79
2022/07/04 11:20:20;;;;;;;3.35;1.52;;;25.10;96.10;;;;;;5053034;28;20647;-79
2022/07/04 11:22:47;;;;;;;2.78;1.17;;;25.30;95.90;;;;;;5052981;28;20540;-81
2022/07/04 11:25:15;;;;;;;3.30;1.50;;;25.60;95.20;;;;;;5050291;28;20287;-80
2022/07/04 11:27:42;;;;;;;4.10;1.50;;;25.90;94.80;;;;;;5041455;28;20201;-78
2022/07/04 11:30:10;;;;;;;3.08;1.60;;;25.90;94.70;;;;;;5044754;28;20209;-80
2022/07/04 11:32:41;;;;;;;3.03;1.75;;;25.80;94.10;;;;;;5050272;28;20288;-78
2022/07/04 11:35:08;;;;;;;2.65;1.40;;;25.80;94.60;;;;;;5049896;28;20359;-79
2022/07/04 11:37:35;;;;;;;1.65;1.20;;;25.90;94.80;;;;;;5050936;28;20197;-80
2022/07/04 11:45:53;;;;;;;3.40;1.35;;;26.50;94.50;;;;;;5041296;28;20291;-80
2022/07/04 11:48:30;;;;;;;1.50;1.25;;;26.70;93.90;;;;;;5049277;28;20268;-80
2022/07/04 11:50:57;;;;;;;3.15;1.40;;;26.70;93.00;;;;;;5047675;28;20213;-79
2022/07/04 11:53:24;;;;;;;3.13;1.42;;;26.70;93.00;;;;;;5048144;28;20586;-84
2022/07/04 11:55:55;;;;;;;2.40;1.40;;;26.80;92.60;;;;;;5042029;28;20193;-78
2022/07/04 11:58:23;;;;;;;2.25;1.13;;;26.70;92.50;;;;;;5040523;28;20209;-81
2022/07/04 12:00:50;;;;;;;1.75;1.40;;;26.80;92.60;;;;;;5038444;28;20214;-81
2022/07/04 12:03:17;;;;;;;2.45;1.40;;;26.90;92.60;;;;;;5048964;28;20205;-80
2022/07/04 12:05:46;;;;;;;3.33;1.50;;;26.90;92.20;;;;;;5042817;28;20226;-83
2022/07/04 12:08:12;;;;;;;3.08;1.52;;;26.90;91.60;;;;;;5048401;28;20217;-79
2022/07/04 12:10:55;;;;;;;2.25;1.20;;;26.90;91.50;;;;;;5048221;28;20572;-79
2022/07/04 12:13:22;;;;;;;1.88;1.15;;;27.00;90.90;;;;;;5038072;28;20254;-80
2022/07/04 12:15:52;;;;;;;3.78;1.58;;;27.00;90.90;;;;;;5050743;28;20660;-81
2022/07/04 12:18:32;;;;;;;2.03;1.27;;;26.90;90.90;;;;;;5049398;28;20229;-80
2022/07/04 12:21:15;;;;;;;1.73;1.30;;;26.90;91.50;;;;;;5044381;28;20204;-79
2022/07/04 12:23:51;;;;;;;2.70;1.10;;;26.90;90.70;;;;;;5048049;28;20223;-81
2022/07/04 12:26:35;;;;;;;2.40;1.45;;;26.70;90.80;;;;;;5042434;28;20214;-83
2022/07/04 12:29:02;;;;;;;2.22;1.48;;;26.30;91.00;;;;;;5046971;28;20582;-83
2022/07/04 12:31:44;;;;;;;1.35;1.25;;;26.20;91.20;;;;;;5050236;28;20230;-84
2022/07/04 12:34:15;;;;;;;2.33;1.38;;;26.20;91.40;;;;;;5046782;28;20232;-83
2022/07/04 12:36:54;;;;;;;2.83;1.30;;;26.20;90.90;;;;;;5049278;28;20597;-84
2022/07/04 12:39:34;;;;;;;1.45;1.15;;;26.40;91.40;;;;;;5050555;28;20213;-85
2022/07/04 12:42:06;;;;;;;4.05;2.03;;;26.60;91.50;;;;;;5034399;28;20245;-87
2022/07/04 12:44:36;;;;;;;4.57;1.48;;;26.60;91.40;;;;;;5046950;28;20228;-88
2022/07/04 12:47:04;;;;;;;3.17;1.60;;;26.70;91.50;;;;;;5049752;28;20212;-86
2022/07/04 12:49:44;;;;;;;2.13;1.30;;;26.70;91.30;;;;;;5043971;28;20268;-84
2022/07/04 12:52:15;;;;;;;1.73;1.20;;;26.80;91.30;;;;;;5046911;28;20198;-84
2022/07/04 12:54:45;;;;;;;1.77;1.25;;;27.20;91.30;;;;;;5044456;28;20249;-86
2022/07/04 12:57:14;;;;;;;2.10;1.30;;;27.40;90.80;;;;;;5042203;28;20278;-86
2022/07/04 12:59:42;;;;;;;2.63;1.27;;;27.60;90.60;;;;;;5045001;28;20678;-86
2022/07/04 13:02:11;;;;;;;1.70;1.05;;;27.80;90.30;;;;;;5050008;28;20292;-87
2022/07/04 13:04:44;;;;;;;4.40;1.70;;;27.80;89.00;;;;;;5048994;28;20271;-86
2022/07/04 13:07:23;;;;;;;1.50;1.00;;;27.80;88.70;;;;;;5047015;28;20213;-87
2022/07/04 13:09:50;;;;;;;2.22;1.25;;;27.80;87.70;;;;;;5038558;28;20587;-87
2022/07/04 13:12:27;;;;;;;1.77;1.10;;;27.80;88.50;;;;;;5071828;28;20685;-88